Sighetu Marmatiei, Romania
Current Conditions -  °F | °C
As of 11:00 PM on Saturday 25 Oct 2014 (Local Time) from LRBM Reporting Station
Scattered Clouds Scattered Clouds  
Wind Chill: 37°   Ceiling: Unl
Heat Index: 37°   Visibility: 6mi
Dew Point: 34°   Wind: 2mph
Humidity: 87%   Direction: NA
Pressure: 30.33"   Gusts: NA
Location:  47.93°N, 23.91°E
Report Text: LRBM 252000Z AUTO VRB02KT 9999 FEW075 SCT230 03/01 Q1027
Loading
Personal Weather Stations






























Interactive Weather Map
Tropical Storm Tracking
New forecast layout! Learn more

10-Day Weather Forecast

Advertisements
Track Severe Weather on mobile